Time;durP1;ratioP1;P1;durP2;ratioP2;P2;SDS_P1;SDS_P2;PMS_P1;PMS_P2;Temp;Humidity;BMP_temperature;BMP_pressure;BME280_temperature;BME280_humidity;BME280_pressure;Samples;Min_cycle;Max_cycle;Signal;HPM_P1;HPM_P2
2022/06/01 00:00:29;;;;;;;12.35;11.05;;;;;;;11.94;74.99;101281.94;5054744;28;20035;-63
2022/06/01 00:02:55;;;;;;;12.10;10.45;;;;;;;11.82;75.55;101284.38;5054632;28;20382;-64
2022/06/01 00:05:21;;;;;;;11.98;10.77;;;;;;;11.73;75.48;101279.88;5054601;28;20079;-62
2022/06/01 00:07:47;;;;;;;12.27;10.98;;;;;;;11.69;76.15;101275.41;5054540;28;20108;-63
2022/06/01 00:10:13;;;;;;;12.43;10.90;;;;;;;11.64;76.25;101285.94;5054622;28;20556;-63
2022/06/01 00:12:39;;;;;;;14.50;10.95;;;;;;;11.63;76.17;101285.91;5036647;28;20032;-63
2022/06/01 00:15:06;;;;;;;11.20;10.10;;;;;;;11.57;76.11;101285.84;5054730;28;20025;-62
2022/06/01 00:17:31;;;;;;;12.40;11.07;;;;;;;11.57;76.09;101292.03;5054192;28;20402;-63
2022/06/01 00:19:57;;;;;;;12.93;11.35;;;;;;;11.60;77.01;101289.41;5054267;28;20036;-63
2022/06/01 00:22:22;;;;;;;12.88;11.57;;;;;;;11.60;76.04;101296.47;5054424;28;20527;-63
2022/06/01 00:24:48;;;;;;;13.43;12.02;;;;;;;11.58;76.69;101285.84;5054351;28;20029;-63
2022/06/01 00:27:15;;;;;;;14.18;12.15;;;;;;;11.61;76.49;101291.22;5054081;28;20049;-63
2022/06/01 00:29:41;;;;;;;13.48;11.68;;;;;;;11.64;76.17;101293.88;5054150;28;20037;-62
2022/06/01 00:32:08;;;;;;;13.00;11.60;;;;;;;11.68;75.62;101293.03;5054239;28;20096;-62
2022/06/01 00:34:34;;;;;;;14.35;12.02;;;;;;;11.65;75.85;101284.16;5054215;28;20025;-63
2022/06/01 00:36:59;;;;;;;12.30;11.00;;;;;;;11.64;75.82;101291.22;5054062;28;20501;-62
2022/06/01 00:39:25;;;;;;;13.43;11.50;;;;;;;11.59;76.64;101295.56;5054013;28;20036;-63
2022/06/01 00:41:51;;;;;;;13.65;11.38;;;;;;;11.57;76.86;101294.69;5054076;28;20111;-63
2022/06/01 00:44:17;;;;;;;14.98;11.95;;;;;;;11.57;76.29;101291.16;5053960;28;20498;-63
2022/06/01 00:46:42;;;;;;;17.08;12.40;;;;;;;11.60;76.70;101286.75;5053847;28;20425;-63
2022/06/01 00:49:19;;;;;;;14.45;12.90;;;;;;;11.61;77.05;101290.31;5053860;28;20029;-63
2022/06/01 00:51:46;;;;;;;14.13;12.63;;;;;;;11.51;77.15;101284.88;5053785;28;20040;-63
2022/06/01 00:54:13;;;;;;;13.88;12.35;;;;;;;11.54;76.59;101292.88;5053599;28;20061;-62
2022/06/01 00:56:43;;;;;;;14.38;11.52;;;;;;;11.64;76.73;101288.56;5053664;28;20025;-62
2022/06/01 00:59:14;;;;;;;15.07;12.70;;;;;;;11.64;76.19;101285.03;5053781;28;20029;-63
2022/06/01 01:01:39;;;;;;;14.23;12.60;;;;;;;11.68;76.74;101286.88;5053342;28;20025;-63
2022/06/01 01:04:06;;;;;;;14.90;12.55;;;;;;;11.61;76.84;101285.03;5053628;28;20028;-62
2022/06/01 01:06:36;;;;;;;15.43;12.63;;;;;;;11.60;76.52;101289.41;5035646;28;20113;-63
2022/06/01 01:09:06;;;;;;;15.30;13.23;;;;;;;11.56;76.90;101279.63;5053338;28;20024;-63
2022/06/01 01:11:45;;;;;;;15.75;13.18;;;;;;;11.52;77.28;101286.69;5053359;28;20025;-63
2022/06/01 01:14:11;;;;;;;14.38;12.88;;;;;;;11.48;77.45;101281.31;5053352;28;20481;-63
2022/06/01 01:16:37;;;;;;;17.63;13.65;;;;;;;11.41;77.75;101288.28;5053245;28;20098;-63
2022/06/01 01:19:13;;;;;;;14.80;13.20;;;;;;;11.33;78.30;101283.72;5053346;28;20060;-63
2022/06/01 01:21:48;;;;;;;16.00;13.95;;;;;;;11.31;78.11;101280.19;5053372;28;20025;-63
2022/06/01 01:24:42;;;;;;;16.63;14.82;;;;;;;11.23;77.95;101269.50;5053174;28;20041;-63
2022/06/01 01:27:07;;;;;;;17.00;15.20;;;;;;;11.32;78.50;101287.25;5052852;28;20045;-63
2022/06/01 01:29:42;;;;;;;16.85;14.70;;;;;;;11.32;78.77;101276.66;5053085;28;20052;-63
2022/06/01 01:32:11;;;;;;;20.70;15.95;;;;;;;11.33;79.02;101271.38;5053423;28;20074;-63
2022/06/01 01:34:38;;;;;;;19.80;15.35;;;;;;;11.36;79.09;101276.75;5053385;28;20029;-62
2022/06/01 01:37:21;;;;;;;17.92;15.75;;;;;;;11.44;78.72;101274.22;5053120;28;20100;-62
2022/06/01 01:39:46;;;;;;;18.00;15.73;;;;;;;11.54;77.89;101271.69;5053093;28;20497;-63
2022/06/01 01:42:12;;;;;;;18.27;15.27;;;;;;;11.61;77.85;101269.16;5053055;28;20025;-63
2022/06/01 01:45:04;;;;;;;16.85;15.05;;;;;;;11.73;77.24;101269.28;5053007;28;20032;-63
2022/06/01 01:47:29;;;;;;;17.05;14.70;;;;;;;11.75;76.46;101271.09;5053152;28;20040;-63
2022/06/01 01:49:54;;;;;;;20.67;15.25;;;;;;;11.84;76.66;101267.69;5052841;28;20033;-63
2022/06/01 01:52:25;;;;;;;16.52;14.77;;;;;;;11.87;76.99;101274.81;5035089;28;20511;-63
2022/06/01 01:54:57;;;;;;;18.52;14.57;;;;;;;11.90;75.97;101278.34;5052902;28;20031;-63
2022/06/01 01:57:53;;;;;;;18.95;15.57;;;;;;;11.95;75.93;101278.44;5052899;28;20075;-62
2022/06/01 02:00:35;;;;;;;17.55;14.05;;;;;;;11.98;76.12;101276.69;5052869;28;20025;-63
2022/06/01 02:03:23;;;;;;;17.38;14.93;;;;;;;11.99;75.54;101283.78;5053191;28;20118;-63
2022/06/01 02:06:04;;;;;;;16.00;14.30;;;;;;;11.95;75.78;101281.09;5053333;28;20355;-63
2022/06/01 02:09:08;;;;;;;17.67;15.68;;;;;;;11.93;75.67;101285.47;5053182;28;20075;-62
2022/06/01 02:14:35;;;;;;;19.05;16.08;;;;;;;11.77;76.94;101292.28;5056995;28;20103;-63
2022/06/01 02:17:12;;;;;;;18.30;16.08;;;;;;;11.69;76.86;101291.28;5056763;28;20028;-63
2022/06/01 02:19:50;;;;;;;22.83;16.95;;;;;;;11.61;76.95;101285.91;5056618;28;20028;-63
2022/06/01 02:22:15;;;;;;;20.02;16.88;;;;;;;11.53;77.98;101282.28;5056974;28;20044;-62
2022/06/01 02:24:42;;;;;;;19.60;17.48;;;;;;;11.54;78.22;101281.41;5056540;28;20025;-62
2022/06/01 02:27:09;;;;;;;19.58;17.48;;;;;;;11.44;78.06;101290.09;5056298;28;20041;-62
2022/06/01 02:29:44;;;;;;;20.98;16.33;;;;;;;11.42;77.94;101287.41;5056460;28;20063;-61
2022/06/01 02:32:12;;;;;;;20.45;16.77;;;;;;;11.42;78.08;101290.03;5038368;28;20513;-62
2022/06/01 02:34:39;;;;;;;21.50;16.58;;;;;;;11.38;78.01;101284.69;5056498;28;20436;-63
2022/06/01 02:37:07;;;;;;;19.15;16.48;;;;;;;11.35;77.85;101287.28;5056221;28;20064;-62
2022/06/01 02:39:39;;;;;;;19.65;16.15;;;;;;;11.33;77.68;101281.97;5055552;28;20029;-63
2022/06/01 02:42:26;;;;;;;;;;;;;;;11.44;76.06;101285.69;5056096;28;20079;-63
2022/06/01 02:45:07;;;;;;;19.10;16.42;;;;;;;11.32;77.86;101289.91;5037850;28;20393;-62
2022/06/01 02:47:37;;;;;;;25.50;17.17;;;;;;;11.19;78.19;101283.53;5056156;28;20033;-63
2022/06/01 02:50:05;;;;;;;21.83;16.77;;;;;;;11.17;78.30;101288.78;5056212;28;20021;-63
2022/06/01 02:52:31;;;;;;;20.55;14.55;;;;;;;11.19;77.90;101281.78;5056086;28;20417;-63
2022/06/01 02:54:56;;;;;;;22.25;17.10;;;;;;;11.14;78.18;101272.88;5055978;28;20445;-62
2022/06/01 02:57:22;;;;;;;23.08;16.83;;;;;;;11.08;78.04;101278.06;5055738;28;20048;-62
2022/06/01 02:59:48;;;;;;;21.20;16.95;;;;;;;10.99;78.40;101280.56;5055801;28;20037;-63
2022/06/01 03:02:14;;;;;;;22.17;18.00;;;;;;;10.91;78.26;101280.44;5055878;28;20367;-63
2022/06/01 03:04:42;;;;;;;23.38;17.55;;;;;;;10.90;78.94;101278.66;5055973;28;20060;-63
2022/06/01 03:07:08;;;;;;;19.92;16.80;;;;;;;10.85;78.33;101276.81;5055781;28;20025;-63
2022/06/01 03:09:34;;;;;;;23.50;17.80;;;;;;;10.74;79.00;101285.44;5055594;28;20489;-62
2022/06/01 03:11:59;;;;;;;20.52;15.95;;;;;;;10.71;78.58;101285.41;5055592;28;20029;-62
2022/06/01 03:14:25;;;;;;;21.10;15.57;;;;;;;10.78;78.14;101286.38;5055723;28;20025;-62
2022/06/01 03:16:51;;;;;;;25.35;16.23;;;;;;;10.77;78.23;101280.22;5055648;28;20052;-63
2022/06/01 03:19:17;;;;;;;24.92;16.42;;;;;;;10.72;78.11;101288.94;5055588;28;20036;-63
2022/06/01 03:21:43;;;;;;;18.58;15.27;;;;;;;10.70;78.56;101275.69;5037561;28;20025;-62
2022/06/01 03:24:09;;;;;;;21.10;16.05;;;;;;;10.69;78.17;101279.19;5055145;28;20096;-63
2022/06/01 03:26:35;;;;;;;21.58;16.02;;;;;;;10.64;78.31;101283.50;5054623;28;20056;-63
2022/06/01 03:29:01;;;;;;;20.23;16.05;;;;;;;10.59;78.39;101281.66;5054735;28;20491;-62
2022/06/01 03:31:27;;;;;;;19.75;15.35;;;;;;;10.49;78.48;101280.59;5054642;28;20027;-62
2022/06/01 03:33:52;;;;;;;21.42;16.20;;;;;;;10.38;78.86;101282.16;5054470;28;20025;-63
2022/06/01 03:36:19;;;;;;;18.42;15.95;;;;;;;10.28;79.18;101289.91;5054788;28;20028;-63
2022/06/01 03:38:45;;;;;;;21.70;16.17;;;;;;;10.20;79.39;101282.69;5054492;28;20107;-63
2022/06/01 03:41:11;;;;;;;20.45;14.40;;;;;;;10.26;79.45;101291.63;5054475;28;20538;-62
2022/06/01 03:46:20;;;;;;;17.27;14.05;;;;;;;10.50;78.16;101288.56;5054671;28;20040;-63
2022/06/01 03:48:46;;;;;;;17.67;15.32;;;;;;;10.48;78.50;101294.66;5054120;28;20421;-63
2022/06/01 03:51:11;;;;;;;15.85;13.48;;;;;;;10.52;78.16;101291.22;5054141;28;20016;-63
2022/06/01 03:53:37;;;;;;;18.98;13.35;;;;;;;10.54;78.03;101292.16;5054107;28;20481;-63
2022/06/01 03:56:03;;;;;;;16.08;12.57;;;;;;;10.64;77.33;101290.56;5053871;28;20040;-62
2022/06/01 03:58:29;;;;;;;21.05;14.18;;;;;;;10.60;77.81;101292.25;5054234;28;20025;-63
2022/06/01 04:00:55;;;;;;;19.80;14.43;;;;;;;10.61;77.69;101287.84;5053992;28;20106;-63
2022/06/01 04:03:21;;;;;;;20.45;14.02;;;;;;;10.60;77.63;101296.66;5053993;28;20419;-63
2022/06/01 04:05:47;;;;;;;16.30;13.30;;;;;;;10.59;77.63;101302.81;5053706;28;20036;-63
2022/06/01 04:08:13;;;;;;;17.80;12.77;;;;;;;10.62;77.60;101300.19;5053712;28;20029;-62
2022/06/01 04:10:42;;;;;;;17.52;12.88;;;;;;;10.68;77.11;101300.31;5053648;28;20108;-63
2022/06/01 04:13:07;;;;;;;20.55;13.60;;;;;;;10.71;77.41;101295.09;5053639;28;20087;-62
2022/06/01 04:15:33;;;;;;;16.50;12.57;;;;;;;10.68;77.43;101301.22;5053536;28;20112;-62
2022/06/01 04:17:58;;;;;;;16.33;12.93;;;;;;;10.63;77.45;101308.16;5035560;28;20103;-62
2022/06/01 04:20:23;;;;;;;16.80;13.25;;;;;;;10.63;77.42;101307.28;5053656;28;20175;-63
2022/06/01 04:22:49;;;;;;;20.52;14.15;;;;;;;10.63;77.47;101302.88;5053384;28;20108;-63
2022/06/01 04:25:17;;;;;;;15.55;11.13;;;;;;;10.72;77.24;101310.97;5053571;28;20469;-63
2022/06/01 04:27:44;;;;;;;16.25;12.55;;;;;;;10.69;76.85;101300.34;5052897;28;20053;-62
2022/06/01 04:30:17;;;;;;;15.13;12.35;;;;;;;10.84;76.44;101306.78;5053386;28;20483;-63
2022/06/01 04:32:44;;;;;;;17.10;12.40;;;;;;;10.82;76.26;101306.72;5053214;28;20094;-63
2022/06/01 04:35:11;;;;;;;19.95;12.55;;;;;;;10.79;76.51;101301.38;5052533;28;20467;-63
2022/06/01 04:37:37;;;;;;;16.98;13.20;;;;;;;10.74;77.05;101290.72;5053031;28;20496;-63
2022/06/01 04:40:04;;;;;;;18.73;12.82;;;;;;;10.69;77.22;101304.75;5053229;28;20100;-62
2022/06/01 04:42:30;;;;;;;19.73;12.23;;;;;;;10.71;77.11;101306.56;5053031;28;20419;-63
2022/06/01 04:44:56;;;;;;;19.23;12.57;;;;;;;10.71;77.92;101306.56;5053039;28;20056;-62
2022/06/01 04:47:21;;;;;;;19.17;12.57;;;;;;;10.69;77.89;101302.97;5053102;28;20064;-63
2022/06/01 04:49:47;;;;;;;17.25;12.02;;;;;;;10.78;77.42;101299.59;5052975;28;20040;-63
2022/06/01 04:52:13;;;;;;;15.98;11.40;;;;;;;10.89;77.47;101299.81;5052937;28;20608;-63
2022/06/01 04:54:38;;;;;;;17.00;12.05;;;;;;;10.95;77.91;101308.72;5053110;28;20511;-62
2022/06/01 04:57:04;;;;;;;21.52;11.85;;;;;;;11.07;77.45;101309.78;5052923;28;20056;-65
2022/06/01 04:59:30;;;;;;;21.38;12.48;;;;;;;11.02;78.04;101307.06;5052694;28;20028;-62
2022/06/01 05:01:55;;;;;;;18.15;12.00;;;;;;;11.09;77.50;101316.91;5052790;28;20074;-62
2022/06/01 05:04:21;;;;;;;17.85;12.38;;;;;;;11.08;78.55;101309.81;5052698;28;20025;-63
2022/06/01 05:06:46;;;;;;;17.17;12.57;;;;;;;11.15;78.65;101314.34;5052845;28;20386;-62
2022/06/01 05:09:12;;;;;;;17.05;12.20;;;;;;;11.14;78.47;101312.56;5052553;28;20120;-62
2022/06/01 05:11:37;;;;;;;19.00;12.75;;;;;;;11.17;78.93;101309.06;5052358;28;20024;-63
2022/06/01 05:14:03;;;;;;;16.85;12.43;;;;;;;11.23;78.25;101315.34;5052628;28;20102;-62
2022/06/01 05:16:28;;;;;;;16.48;12.20;;;;;;;11.27;78.25;101309.25;5052376;28;20036;-62
2022/06/01 05:18:54;;;;;;;19.48;12.07;;;;;;;11.28;78.24;101315.41;5052633;28;20127;-63
2022/06/01 05:21:20;;;;;;;22.98;11.70;;;;;;;11.36;78.35;101307.59;5052458;28;20456;-63
2022/06/01 05:23:46;;;;;;;20.58;12.32;;;;;;;11.43;77.89;101310.34;5052477;28;20032;-62
2022/06/01 05:26:11;;;;;;;20.42;12.13;;;;;;;11.46;78.48;101314.78;5052165;28;20048;-62
2022/06/01 05:28:37;;;;;;;21.05;11.23;;;;;;;11.55;78.16;101312.28;5052265;28;20382;-62
2022/06/01 05:31:09;;;;;;;16.90;10.68;;;;;;;11.70;77.85;101308.97;5052320;28;20470;-62
2022/06/01 05:33:35;;;;;;;17.38;10.50;;;;;;;11.79;77.67;101317.03;5052393;28;20021;-62
2022/06/01 05:36:02;;;;;;;16.90;10.05;;;;;;;11.84;77.47;101315.34;5052588;28;20114;-62
2022/06/01 05:38:27;;;;;;;16.67;10.15;;;;;;;11.94;76.80;101319.00;5052263;28;20090;-62
2022/06/01 05:40:53;;;;;;;22.45;10.68;;;;;;;12.00;77.29;101325.28;5052400;28;20032;-62
2022/06/01 05:43:19;;;;;;;16.17;10.32;;;;;;;12.13;77.50;101317.50;5052070;28;20025;-62
2022/06/01 05:45:45;;;;;;;14.88;10.60;;;;;;;12.23;77.26;101314.06;5052205;28;20024;-62
2022/06/01 05:48:15;;;;;;;16.00;10.05;;;;;;;12.36;76.87;101320.41;5051959;28;20476;-63
2022/06/01 05:50:41;;;;;;;18.02;10.70;;;;;;;12.44;76.08;101310.78;5048946;28;20037;-62
2022/06/01 05:53:06;;;;;;;15.10;9.90;;;;;;;12.64;76.99;101318.94;5051856;28;20375;-62
2022/06/01 05:55:35;;;;;;;14.68;9.73;;;;;;;12.76;75.59;101324.31;5051782;28;20025;-62
2022/06/01 05:58:00;;;;;;;16.23;10.07;;;;;;;12.88;75.29;101316.50;5051720;28;20082;-62
2022/06/01 06:00:26;;;;;;;16.50;9.75;;;;;;;13.00;75.19;101321.03;5051803;28;20021;-62
2022/06/01 06:02:51;;;;;;;16.02;10.32;;;;;;;13.16;74.91;101317.63;5052130;28;20067;-62
2022/06/01 06:08:01;;;;;;;15.38;9.52;;;;;;;13.38;74.03;101324.00;5052178;28;20040;-62
2022/06/01 06:10:28;;;;;;;16.10;9.77;;;;;;;13.39;73.43;101324.88;5051034;28;20025;-62
2022/06/01 06:12:53;;;;;;;15.43;9.80;;;;;;;13.58;73.84;101332.09;5052266;28;20032;-62
2022/06/01 06:15:19;;;;;;;14.93;9.80;;;;;;;13.74;73.51;101325.97;5052233;28;20108;-62
2022/06/01 06:17:45;;;;;;;14.77;9.45;;;;;;;13.95;73.71;101329.63;5052155;28;20452;-61
2022/06/01 06:20:11;;;;;;;14.38;9.10;;;;;;;14.10;72.44;101331.50;5051881;28;20375;-62
2022/06/01 06:22:36;;;;;;;15.57;9.40;;;;;;;14.13;72.28;101329.75;5051860;28;20033;-62
2022/06/01 06:25:03;;;;;;;15.43;9.23;;;;;;;14.27;71.92;101333.31;5051819;28;20086;-62
2022/06/01 06:27:28;;;;;;;14.80;9.55;;;;;;;14.47;72.88;101332.47;5051374;28;20053;-62
2022/06/01 06:29:54;;;;;;;14.35;9.50;;;;;;;14.60;71.67;101330.78;5051876;28;20052;-62
2022/06/01 06:32:20;;;;;;;16.95;8.85;;;;;;;14.81;70.80;101344.09;5051743;28;20372;-61
2022/06/01 06:34:45;;;;;;;17.38;8.90;;;;;;;14.97;70.58;101337.91;5051891;28;20039;-62
2022/06/01 06:37:10;;;;;;;13.85;9.10;;;;;;;15.08;70.18;101347.69;5051694;28;20090;-62
2022/06/01 06:39:36;;;;;;;14.25;8.25;;;;;;;15.18;69.67;101346.81;5051811;28;20025;-61
2022/06/01 06:42:02;;;;;;;15.43;8.55;;;;;;;15.21;68.73;101358.34;5051509;28;20380;-62
2022/06/01 06:44:27;;;;;;;14.88;8.27;;;;;;;15.35;69.11;101362.78;5051955;28;20021;-61
2022/06/01 06:46:53;;;;;;;12.27;8.30;;;;;;;15.44;68.57;101365.41;5051680;28;20025;-62
2022/06/01 06:49:18;;;;;;;14.82;7.75;;;;;;;15.56;68.50;101367.19;5051776;28;20067;-61
2022/06/01 06:51:43;;;;;;;15.55;7.97;;;;;;;15.62;68.06;101369.84;5051824;28;20482;-62
2022/06/01 06:54:10;;;;;;;9.90;6.85;;;;;;;15.71;65.87;101376.06;5051733;28;20112;-62
2022/06/01 06:56:35;;;;;;;18.20;8.00;;;;;;;15.86;67.38;101369.81;5033625;28;20028;-61
2022/06/01 06:59:02;;;;;;;10.88;7.00;;;;;;;15.98;65.85;101371.56;5053248;28;20036;-62
2022/06/01 07:01:27;;;;;;;13.98;7.40;;;;;;;16.11;65.97;101375.97;5055533;28;20071;-61
2022/06/01 07:03:52;;;;;;;12.10;7.65;;;;;;;16.23;66.07;101375.94;5055179;28;20025;-62
2022/06/01 07:06:18;;;;;;;10.65;7.63;;;;;;;16.33;65.86;101375.88;5055073;28;20093;-62
2022/06/01 07:08:46;;;;;;;9.77;7.18;;;;;;;16.50;66.15;101372.25;5054955;28;20355;-61
2022/06/01 07:11:13;;;;;;;11.75;7.20;;;;;;;16.66;64.98;101377.47;5055066;28;20027;-61
2022/06/01 07:13:39;;;;;;;15.77;6.78;;;;;;;16.75;63.99;101377.47;5054902;28;20040;-62
2022/06/01 07:16:13;;;;;;;11.45;6.95;;;;;;;16.90;64.71;101373.81;5054968;28;20025;-62
2022/06/01 07:18:43;;;;;;;13.95;7.22;;;;;;;17.06;63.66;101377.25;5055046;28;20029;-61
2022/06/01 07:21:09;;;;;;;13.27;7.43;;;;;;;17.08;63.65;101381.69;5054880;28;20025;-62
2022/06/01 07:23:37;;;;;;;14.10;7.68;;;;;;;16.92;63.98;101382.72;5054817;28;20478;-62
2022/06/01 07:26:04;;;;;;;14.93;7.65;;;;;;;16.78;63.78;101378.31;5054523;28;20029;-62
2022/06/01 07:28:30;;;;;;;12.32;7.50;;;;;;;16.68;63.73;101381.91;5054861;28;20382;-61
2022/06/01 07:30:58;;;;;;;12.38;7.50;;;;;;;16.62;65.08;101378.41;5054936;28;20069;-62
2022/06/01 07:33:26;;;;;;;12.05;7.65;;;;;;;16.59;65.18;101381.97;5054885;28;20033;-62
2022/06/01 07:35:59;;;;;;;11.88;7.30;;;;;;;16.67;65.09;101382.81;5054547;28;20032;-62
2022/06/01 07:44:08;;;;;;;13.15;6.93;;;;;;;16.51;63.57;101387.34;5054786;28;20040;-62
2022/06/01 07:46:37;;;;;;;11.20;7.07;;;;;;;16.80;64.06;101386.34;5054455;28;20036;-61
2022/06/01 07:49:07;;;;;;;15.55;7.53;;;;;;;16.92;63.20;101383.59;5054522;28;20025;-62
2022/06/01 07:51:34;;;;;;;13.27;7.25;;;;;;;17.09;63.59;101382.59;5054700;28;20093;-61
2022/06/01 07:53:59;;;;;;;7.18;4.82;;;;;;;17.35;59.71;101385.06;5054458;28;20029;-61
2022/06/01 07:56:26;;;;;;;9.82;4.80;;;;;;;17.56;58.00;101384.84;5054185;28;20021;-61
2022/06/01 07:58:51;;;;;;;9.98;5.75;;;;;;;17.62;56.91;101381.22;5054052;28;20037;-61
2022/06/01 08:01:21;;;;;;;12.18;6.50;;;;;;;17.72;57.71;101382.91;5053534;28;20159;-61
2022/06/01 08:03:46;;;;;;;10.45;6.38;;;;;;;17.73;58.95;101382.91;5035390;28;20052;-61
2022/06/01 08:06:12;;;;;;;11.02;6.78;;;;;;;17.70;58.83;101384.72;5054177;28;20478;-61
2022/06/01 08:08:37;;;;;;;9.07;6.30;;;;;;;17.42;58.86;101384.06;5054067;28;20029;-62
2022/06/01 08:11:06;;;;;;;11.18;5.90;;;;;;;17.40;58.22;101393.91;5053273;28;20029;-61
2022/06/01 08:13:31;;;;;;;8.98;5.80;;;;;;;17.45;59.26;101387.63;5054109;28;20100;-61
2022/06/01 08:15:57;;;;;;;7.82;5.47;;;;;;;17.51;57.09;101392.00;5053956;28;20080;-61
2022/06/01 08:18:24;;;;;;;7.80;5.55;;;;;;;17.68;57.18;101390.06;5053841;28;20025;-61
2022/06/01 08:20:51;;;;;;;8.43;5.88;;;;;;;17.79;56.83;101386.44;5053714;28;20022;-62
2022/06/01 08:23:17;;;;;;;10.48;5.57;;;;;;;17.89;55.71;101386.31;5053792;28;20021;-61
2022/06/01 08:25:43;;;;;;;7.65;5.70;;;;;;;18.19;55.08;101381.53;5053839;28;20078;-62
2022/06/01 08:28:09;;;;;;;8.95;5.65;;;;;;;18.42;55.01;101378.59;5053645;28;20548;-62
2022/06/01 08:30:36;;;;;;;8.50;5.75;;;;;;;18.58;55.25;101380.13;5053680;28;20470;-61
2022/06/01 08:33:03;;;;;;;6.45;5.15;;;;;;;18.88;52.91;101378.81;5053560;28;20060;-62
2022/06/01 08:35:33;;;;;;;7.32;5.22;;;;;;;19.09;52.88;101382.09;5053447;28;20048;-62
2022/06/01 08:37:59;;;;;;;7.13;5.35;;;;;;;19.20;52.80;101367.63;5053605;28;20051;-62
2022/06/01 08:40:31;;;;;;;9.52;5.63;;;;;;;19.54;53.93;101376.88;5053407;28;20082;-61
2022/06/01 08:43:16;;;;;;;7.07;4.80;;;;;;;19.82;51.79;101375.47;5053592;28;20432;-61
2022/06/01 08:45:48;;;;;;;10.55;5.20;;;;;;;19.96;48.75;101367.19;5053832;28;20025;-61
2022/06/01 08:48:22;;;;;;;5.95;4.72;;;;;;;20.05;48.09;101375.03;5054608;28;20058;-61
2022/06/01 08:50:52;;;;;;;7.15;4.65;;;;;;;19.81;47.79;101363.00;5055384;28;20032;-62
2022/06/01 08:53:21;;;;;;;6.30;4.20;;;;;;;19.69;47.97;101377.50;5053444;28;20044;-61
2022/06/01 08:55:56;;;;;;;5.82;4.07;;;;;;;19.43;47.20;101377.06;5053375;28;20481;-61
2022/06/01 08:58:38;;;;;;;5.72;3.92;;;;;;;19.61;47.58;101383.91;5053227;28;20021;-62
2022/06/01 09:01:25;;;;;;;5.35;3.58;;;;;;;19.96;46.68;101388.66;5053192;28;20040;-62
2022/06/01 09:04:11;;;;;;;5.57;4.18;;;;;;;20.08;46.89;101391.06;5053394;28;20089;-61
2022/06/01 09:06:48;;;;;;;7.47;4.80;;;;;;;19.66;45.50;101390.09;5053018;28;20082;-62
2022/06/01 09:09:26;;;;;;;5.78;4.75;;;;;;;19.44;47.81;101386.84;5052639;28;20393;-61
2022/06/01 09:11:53;;;;;;;9.95;4.70;;;;;;;19.27;47.07;101396.09;5052997;28;20056;-61
2022/06/01 09:14:18;;;;;;;6.88;4.80;;;;;;;19.19;48.12;101381.06;5052979;28;20025;-61
2022/06/01 09:16:47;;;;;;;6.43;4.25;;;;;;;19.04;47.74;101390.19;5052884;28;20036;-61
2022/06/01 09:19:21;;;;;;;5.78;4.00;;;;;;;19.15;48.39;101380.22;5052859;28;20029;-61
2022/06/01 09:24:48;;;;;;;7.00;4.15;;;;;;;19.17;46.42;101377.50;5052998;28;20094;-61
2022/06/01 09:27:14;;;;;;;8.30;4.22;;;;;;;19.15;47.32;101382.00;5052503;28;20560;-61
2022/06/01 09:29:48;;;;;;;6.28;4.50;;;;;;;18.94;48.39;101377.88;5052545;28;20176;-61
2022/06/01 09:32:31;;;;;;;6.95;4.28;;;;;;;18.84;49.33;101395.84;5052862;28;20095;-61
2022/06/01 09:35:09;;;;;;;4.93;3.58;;;;;;;18.64;49.25;101408.63;5052724;28;20103;-62
2022/06/01 09:37:46;;;;;;;4.90;3.30;;;;;;;18.12;51.79;101407.47;5052616;28;20021;-61
2022/06/01 09:40:25;;;;;;;4.97;3.42;;;;;;;17.61;54.13;101403.53;5052624;28;20037;-61
2022/06/01 09:42:53;;;;;;;6.65;3.25;;;;;;;17.14;55.82;101397.69;5052483;28;20115;-62
2022/06/01 09:45:26;;;;;;;4.85;3.20;;;;;;;16.75;54.97;101398.84;5052477;28;20098;-63
2022/06/01 09:47:53;;;;;;;7.75;3.00;;;;;;;16.61;56.72;101395.28;5052424;28;20033;-63
2022/06/01 09:50:28;;;;;;;3.70;2.80;;;;;;;16.54;57.36;101405.13;5052462;28;20036;-64
2022/06/01 09:53:19;;;;;;;5.63;2.60;;;;;;;16.40;57.44;101407.88;5052434;28;20025;-63
2022/06/01 09:56:01;;;;;;;4.18;2.60;;;;;;;16.27;58.54;101408.78;5052441;28;20028;-62
2022/06/01 10:06:55;;;;;;;4.07;3.28;;;;;;;15.89;61.34;101436.47;5052476;28;20040;-63
2022/06/01 10:09:25;;;;;;;8.25;3.67;;;;;;;15.89;62.47;101436.47;5052652;28;20021;-63
2022/06/01 10:11:51;;;;;;;7.45;3.72;;;;;;;15.75;64.34;101439.13;5036266;28;20021;-63
2022/06/01 10:14:26;;;;;;;8.00;3.78;;;;;;;15.64;64.93;101443.59;5054866;28;20029;-64
2022/06/01 10:17:21;;;;;;;9.13;4.60;;;;;;;15.60;64.04;101465.75;5053304;28;20033;-64
2022/06/01 10:20:00;;;;;;;7.68;4.50;;;;;;;15.27;63.45;101488.78;5052487;28;20033;-63
2022/06/01 10:22:43;;;;;;;10.52;4.95;;;;;;;15.13;64.07;101482.56;5052024;28;20044;-64
2022/06/01 10:25:18;;;;;;;11.85;5.32;;;;;;;15.02;65.74;101494.94;5052248;28;20479;-63
2022/06/01 10:28:06;;;;;;;9.48;4.78;;;;;;;14.99;64.49;101487.84;5051770;28;20045;-64
2022/06/01 10:30:37;;;;;;;7.70;4.38;;;;;;;14.94;65.09;101492.25;5052169;28;20041;-61
2022/06/01 10:33:12;;;;;;;10.20;5.25;;;;;;;14.87;66.73;101501.13;5052423;28;20025;-63
2022/06/01 10:36:19;;;;;;;6.93;4.57;;;;;;;14.76;64.76;101506.38;5056079;28;20033;-62
2022/06/01 10:38:54;;;;;;;7.13;4.68;;;;;;;14.62;64.87;101485.94;4974732;28;20117;-62
2022/06/01 10:41:28;;;;;;;6.53;3.58;;;;;;;14.46;65.07;101477.84;4974882;28;20170;-63
2022/06/01 10:44:00;;;;;;;6.40;3.10;;;;;;;14.43;65.37;101456.59;4974873;28;20179;-62
2022/06/01 10:46:57;;;;;;;6.95;3.25;;;;;;;14.55;65.45;101458.41;4974791;28;20071;-63
2022/06/01 10:49:22;;;;;;;5.57;3.72;;;;;;;14.68;67.14;101464.69;4974701;28;20414;-63
2022/06/01 10:52:17;;;;;;;5.10;3.60;;;;;;;14.81;66.61;101457.63;4974662;28;20166;-62
2022/06/01 10:55:09;;;;;;;4.05;3.13;;;;;;;14.94;66.40;101449.66;4955191;29;20138;-63
2022/06/01 10:57:41;;;;;;;4.30;3.00;;;;;;;15.00;68.76;101456.81;4945214;29;20039;-62
2022/06/01 11:00:11;;;;;;;4.82;3.30;;;;;;;15.39;69.34;101447.97;4955237;29;20047;-62
2022/06/01 11:03:00;;;;;;;3.85;3.38;;;;;;;15.93;72.17;101462.22;4955267;29;20496;-62
2022/06/01 11:05:44;;;;;;;6.78;3.33;;;;;;;16.46;68.20;101454.97;4955193;29;20039;-63
2022/06/01 11:08:34;;;;;;;4.30;3.30;;;;;;;16.68;65.86;101453.09;4955044;29;20035;-62
2022/06/01 11:11:03;;;;;;;9.25;3.75;;;;;;;16.89;64.61;101463.69;4954975;29;20045;-62
2022/06/01 11:13:51;;;;;;;4.40;3.47;;;;;;;17.07;65.59;101448.47;4988249;28;20121;-62
2022/06/01 11:16:34;;;;;;;5.60;3.33;;;;;;;17.13;63.48;101454.66;4994434;28;20034;-62
2022/06/01 11:19:14;;;;;;;;;;;;;;;17.27;63.60;101454.56;4994163;28;20038;-64
2022/06/01 11:22:04;;;;;;;5.30;3.88;;;;;;;17.23;63.84;101450.13;4993666;28;19917;-61
2022/06/01 11:25:10;;;;;;;7.60;4.32;;;;;;;17.18;63.56;101443.94;4993367;28;20046;-61
2022/06/01 11:27:51;;;;;;;5.05;4.20;;;;;;;17.06;63.50;101444.03;4992986;28;20050;-61
2022/06/01 11:30:20;;;;;;;5.80;4.30;;;;;;;16.97;63.34;101452.97;4993315;28;20042;-62
2022/06/01 11:32:49;;;;;;;6.82;4.47;;;;;;;17.00;64.52;101451.19;5051807;28;20033;-61
2022/06/01 11:35:20;;;;;;;5.93;4.07;;;;;;;17.03;64.33;101456.47;5054784;28;20025;-60
2022/06/01 11:37:54;;;;;;;6.95;4.00;;;;;;;17.09;62.91;101465.38;5054440;28;20123;-61
2022/06/01 11:40:47;;;;;;;5.53;3.47;;;;;;;17.23;61.38;101464.38;5054328;28;20493;-61
2022/06/01 11:43:15;;;;;;;5.47;3.40;;;;;;;17.53;62.58;101476.63;5054485;28;20482;-61
2022/06/01 11:45:51;;;;;;;5.45;3.60;;;;;;;17.92;59.40;101466.50;5054081;28;20467;-61
2022/06/01 11:48:31;;;;;;;5.30;3.40;;;;;;;18.27;57.53;101468.81;5054365;28;20428;-61
2022/06/01 11:51:21;;;;;;;4.05;3.13;;;;;;;18.49;56.78;101463.22;5054553;28;20074;-60
2022/06/01 11:54:25;;;;;;;4.70;3.10;;;;;;;18.86;57.39;101462.78;5054299;28;20029;-60
2022/06/01 11:57:36;;;;;;;4.85;3.10;;;;;;;19.18;54.46;101459.63;5054164;28;20060;-61